Time;durP1;ratioP1;P1;durP2;ratioP2;P2;SDS_P1;SDS_P2;PMS_P1;PMS_P2;Temp;Humidity;BMP_temperature;BMP_pressure;BME280_temperature;BME280_humidity;BME280_pressure;Samples;Min_cycle;Max_cycle;Signal;HPM_P1;HPM_P2
2021/09/30 00:02:19;;;;;;;0.30;0.30;;;8.30;99.90;;;;;;5138369;27;20164;-67
2021/09/30 00:04:45;;;;;;;0.30;0.30;;;8.20;99.90;;;;;;5138095;27;20700;-68
2021/09/30 00:07:10;;;;;;;0.30;0.30;;;8.20;99.90;;;;;;5138418;27;20289;-69
2021/09/30 00:09:39;;;;;;;0.30;0.30;;;8.20;99.90;;;;;;5138128;27;20175;-69
2021/09/30 00:12:11;;;;;;;0.30;0.30;;;8.20;99.90;;;;;;5138117;27;20172;-70
2021/09/30 00:14:42;;;;;;;0.30;0.30;;;8.20;99.90;;;;;;5138258;27;20179;-67
2021/09/30 00:17:25;;;;;;;0.30;0.30;;;8.10;99.90;;;;;;5138188;27;20196;-68
2021/09/30 00:39:40;;;;;;;0.30;0.30;;;8.00;99.90;;;;;;5137732;27;20204;-68
2021/09/30 00:47:10;;;;;;;0.30;0.30;;;8.10;99.90;;;;;;5137466;27;20191;-67
2021/09/30 01:28:01;;;;;;;0.30;0.30;;;8.40;99.90;;;;;;5136710;27;20219;-69
2021/09/30 02:19:39;;;;;;;0.30;0.30;;;7.50;99.90;;;;;;5135903;27;20174;-68
2021/09/30 02:22:28;;;;;;;0.30;0.30;;;7.40;99.90;;;;;;5135201;27;20164;-67
2021/09/30 02:30:27;;;;;;;0.68;0.68;;;7.20;99.90;;;;;;5135706;27;20172;-68
2021/09/30 03:00:31;;;;;;;0.30;0.30;;;7.00;99.90;;;;;;5135423;27;20179;-68
2021/09/30 03:03:00;;;;;;;0.30;0.30;;;7.00;99.90;;;;;;5116408;27;20660;-67
2021/09/30 03:05:26;;;;;;;0.30;0.30;;;6.90;99.90;;;;;;5134814;27;20532;-67
2021/09/30 03:07:54;;;;;;;0.30;0.30;;;6.90;99.90;;;;;;5134964;27;20195;-67
2021/09/30 03:10:21;;;;;;;0.30;0.30;;;6.90;99.90;;;;;;5134903;27;20174;-69
2021/09/30 03:12:49;;;;;;;0.35;0.35;;;6.90;99.90;;;;;;5134688;27;20549;-69
2021/09/30 03:17:52;;;;;;;0.38;0.38;;;6.90;99.90;;;;;;5134740;27;20242;-70
2021/09/30 03:20:41;;;;;;;0.40;0.40;;;6.90;99.90;;;;;;5134875;27;20159;-68
2021/09/30 03:23:15;;;;;;;0.30;0.30;;;6.80;99.90;;;;;;5134723;27;20203;-70
2021/09/30 03:25:46;;;;;;;0.30;0.30;;;6.70;99.90;;;;;;5134626;27;20163;-69
2021/09/30 03:28:12;;;;;;;0.30;0.30;;;6.60;99.90;;;;;;5134820;27;20551;-67
2021/09/30 03:30:38;;;;;;;0.32;0.32;;;6.60;99.90;;;;;;5134800;27;20254;-68
2021/09/30 03:33:07;;;;;;;0.30;0.30;;;6.60;99.90;;;;;;5133528;27;20276;-67
2021/09/30 03:35:35;;;;;;;0.30;0.30;;;6.60;99.90;;;;;;5134434;27;20340;-67
2021/09/30 03:38:02;;;;;;;0.38;0.38;;;6.60;99.90;;;;;;5134961;28;20171;-68
2021/09/30 03:40:28;;;;;;;0.30;0.30;;;6.50;99.90;;;;;;5134651;28;20171;-68
2021/09/30 03:42:54;;;;;;;0.30;0.30;;;6.40;99.90;;;;;;5134362;28;20191;-69
2021/09/30 03:45:20;;;;;;;0.40;0.40;;;6.20;99.90;;;;;;5134340;28;20397;-68
2021/09/30 03:47:46;;;;;;;0.30;0.30;;;6.10;99.90;;;;;;5134162;28;20517;-66
2021/09/30 03:50:22;;;;;;;0.30;0.30;;;6.10;99.90;;;;;;5134293;28;20159;-70
2021/09/30 03:53:00;;;;;;;0.40;0.40;;;6.20;99.90;;;;;;5134192;28;20644;-69
2021/09/30 03:55:59;;;;;;;0.30;0.30;;;6.20;99.90;;;;;;5134030;28;20213;-67
2021/09/30 04:01:11;;;;;;;0.40;0.40;;;6.30;99.90;;;;;;5134451;28;20178;-69
2021/09/30 04:03:36;;;;;;;0.30;0.30;;;6.30;99.90;;;;;;5133923;28;20693;-68
2021/09/30 04:06:02;;;;;;;0.30;0.30;;;6.20;99.90;;;;;;5134301;28;20304;-68
2021/09/30 04:08:29;;;;;;;0.30;0.30;;;6.20;99.90;;;;;;5134375;28;20533;-67
2021/09/30 04:10:56;;;;;;;0.30;0.30;;;6.10;99.90;;;;;;5134284;28;20941;-68
2021/09/30 04:13:22;;;;;;;0.30;0.30;;;6.10;99.90;;;;;;5133838;28;20270;-68
2021/09/30 04:15:50;;;;;;;0.30;0.30;;;6.00;99.90;;;;;;5134043;28;20294;-69
2021/09/30 04:18:16;;;;;;;0.35;0.35;;;6.10;99.90;;;;;;5134134;28;20406;-68
2021/09/30 04:20:42;;;;;;;0.30;0.30;;;6.10;99.90;;;;;;5134239;28;20172;-69
2021/09/30 04:23:07;;;;;;;0.30;0.30;;;6.10;99.90;;;;;;5133831;28;20184;-67
2021/09/30 04:25:33;;;;;;;0.30;0.30;;;6.10;99.90;;;;;;5134289;28;20255;-69
2021/09/30 04:27:58;;;;;;;0.30;0.30;;;6.10;99.90;;;;;;5134168;28;20164;-68
2021/09/30 04:30:24;;;;;;;0.30;0.30;;;6.10;99.90;;;;;;5134184;28;20168;-69
2021/09/30 04:32:50;;;;;;;0.30;0.30;;;6.10;99.90;;;;;;5134052;28;20649;-70
2021/09/30 04:35:16;;;;;;;0.30;0.30;;;6.00;99.90;;;;;;5133567;28;20174;-69
2021/09/30 04:37:42;;;;;;;0.30;0.30;;;6.00;99.90;;;;;;5134036;28;20218;-70
2021/09/30 04:40:08;;;;;;;0.40;0.40;;;5.90;99.90;;;;;;5133785;28;20195;-67
2021/09/30 04:42:34;;;;;;;0.40;0.40;;;5.90;99.90;;;;;;5133685;28;20539;-69
2021/09/30 04:45:00;;;;;;;0.30;0.30;;;5.90;99.90;;;;;;5135966;27;20171;-70
2021/09/30 04:47:27;;;;;;;0.40;0.40;;;5.90;99.90;;;;;;5137388;27;20243;-68
2021/09/30 04:49:53;;;;;;;0.30;0.30;;;5.80;99.90;;;;;;5137743;27;20648;-68
2021/09/30 04:52:20;;;;;;;0.30;0.30;;;5.80;99.90;;;;;;5137471;27;20625;-69
2021/09/30 04:54:46;;;;;;;0.30;0.30;;;5.70;99.90;;;;;;5137225;27;20548;-70
2021/09/30 04:57:12;;;;;;;0.40;0.40;;;5.70;99.90;;;;;;5136234;27;20237;-69
2021/09/30 04:59:37;;;;;;;0.30;0.30;;;5.80;99.90;;;;;;5136248;27;20172;-67
2021/09/30 05:02:03;;;;;;;0.40;0.40;;;5.80;99.90;;;;;;5137387;27;20405;-67
2021/09/30 05:04:29;;;;;;;0.40;0.40;;;5.80;99.90;;;;;;5136899;27;20183;-69
2021/09/30 05:06:55;;;;;;;0.30;0.30;;;5.70;99.90;;;;;;5137042;27;20433;-66
2021/09/30 05:09:23;;;;;;;0.30;0.30;;;5.80;99.90;;;;;;5137058;27;20220;-66
2021/09/30 05:11:53;;;;;;;0.30;0.30;;;5.70;99.90;;;;;;5137242;27;20251;-68
2021/09/30 05:14:19;;;;;;;0.30;0.30;;;5.70;99.90;;;;;;5137156;27;20289;-67
2021/09/30 05:16:45;;;;;;;0.30;0.30;;;5.60;99.90;;;;;;5137096;27;20219;-67
2021/09/30 05:19:10;;;;;;;0.30;0.30;;;5.50;99.90;;;;;;5137074;27;20401;-67
2021/09/30 05:21:36;;;;;;;0.30;0.30;;;5.60;99.90;;;;;;5136739;27;20155;-69
2021/09/30 05:24:02;;;;;;;0.30;0.30;;;5.60;99.90;;;;;;5118213;27;20598;-69
2021/09/30 05:26:28;;;;;;;0.40;0.40;;;5.60;99.90;;;;;;5136768;27;20195;-69
2021/09/30 05:29:00;;;;;;;0.30;0.30;;;5.60;99.90;;;;;;5118404;27;20246;-68
2021/09/30 05:31:26;;;;;;;0.35;0.35;;;5.60;99.90;;;;;;5136796;27;20167;-70
2021/09/30 05:33:52;;;;;;;0.30;0.30;;;5.60;99.90;;;;;;5136381;27;20675;-69
2021/09/30 05:36:18;;;;;;;0.30;0.30;;;5.70;99.90;;;;;;5136413;27;20199;-66
2021/09/30 05:38:44;;;;;;;0.30;0.30;;;5.60;99.90;;;;;;5136532;27;20167;-69
2021/09/30 05:41:10;;;;;;;0.30;0.30;;;5.60;99.90;;;;;;5136544;27;20620;-68
2021/09/30 05:43:38;;;;;;;0.30;0.30;;;5.70;99.90;;;;;;5136412;27;20502;-69
2021/09/30 05:46:05;;;;;;;0.40;0.40;;;5.70;99.90;;;;;;5136288;27;20436;-69
2021/09/30 05:48:31;;;;;;;0.30;0.30;;;5.80;99.90;;;;;;5136536;27;20201;-67
2021/09/30 05:50:57;;;;;;;0.30;0.30;;;5.80;99.90;;;;;;5136253;27;20175;-66
2021/09/30 05:53:23;;;;;;;0.60;0.60;;;5.90;99.90;;;;;;5135990;27;20580;-67
2021/09/30 05:55:49;;;;;;;0.40;0.40;;;5.80;99.90;;;;;;5135102;27;20252;-69
2021/09/30 05:58:16;;;;;;;0.40;0.40;;;5.90;99.90;;;;;;5136223;27;20619;-67
2021/09/30 06:14:04;;;;;;;0.30;0.30;;;6.00;99.90;;;;;;5135597;27;20186;-69
2021/09/30 06:16:33;;;;;;;0.40;0.40;;;6.10;99.90;;;;;;5135814;27;20199;-68
2021/09/30 06:19:01;;;;;;;0.30;0.30;;;6.20;99.90;;;;;;5135915;27;20166;-69
2021/09/30 06:21:27;;;;;;;0.40;0.40;;;6.30;99.90;;;;;;5134627;27;20167;-71
2021/09/30 06:23:53;;;;;;;0.40;0.40;;;6.30;99.90;;;;;;5135838;27;20553;-70
2021/09/30 06:26:19;;;;;;;0.30;0.30;;;6.40;99.90;;;;;;5135155;27;20443;-69
2021/09/30 06:28:44;;;;;;;0.37;0.37;;;6.40;99.90;;;;;;5135155;27;20668;-70
2021/09/30 06:31:10;;;;;;;0.30;0.30;;;6.30;99.90;;;;;;5135437;27;20433;-69
2021/09/30 06:33:36;;;;;;;0.30;0.30;;;6.20;99.90;;;;;;5134071;27;20198;-70
2021/09/30 06:36:02;;;;;;;0.30;0.30;;;6.20;99.90;;;;;;5135686;27;20228;-71
2021/09/30 06:38:28;;;;;;;0.40;0.40;;;6.40;99.90;;;;;;5133954;27;20167;-70
2021/09/30 06:40:55;;;;;;;0.30;0.30;;;6.50;99.90;;;;;;5134887;27;20191;-69
2021/09/30 06:43:20;;;;;;;0.30;0.30;;;6.50;99.90;;;;;;5134827;27;20243;-71
2021/09/30 06:45:48;;;;;;;0.40;0.40;;;6.60;99.90;;;;;;5133917;27;20578;-71
2021/09/30 06:48:14;;;;;;;0.32;0.32;;;6.80;99.90;;;;;;5135278;27;20944;-70
2021/09/30 06:50:39;;;;;;;0.30;0.30;;;7.00;99.90;;;;;;5134773;27;20202;-72
2021/09/30 06:53:07;;;;;;;0.30;0.30;;;7.40;99.90;;;;;;5134549;27;20195;-69
2021/09/30 06:55:33;;;;;;;0.30;0.30;;;7.70;99.90;;;;;;5134922;27;20561;-72
2021/09/30 06:57:58;;;;;;;0.30;0.30;;;8.10;99.90;;;;;;5135028;27;20164;-72
2021/09/30 07:00:24;;;;;;;0.30;0.30;;;8.20;99.90;;;;;;5135030;27;20165;-71
2021/09/30 07:02:51;;;;;;;0.30;0.30;;;8.40;99.90;;;;;;5134943;27;20655;-69
2021/09/30 07:05:18;;;;;;;0.30;0.30;;;8.60;99.60;;;;;;5134895;27;20253;-70
2021/09/30 07:07:43;;;;;;;0.30;0.30;;;9.00;99.30;;;;;;5134781;27;20166;-71
2021/09/30 07:10:10;;;;;;;0.30;0.30;;;9.60;99.90;;;;;;5134777;27;20183;-71
2021/09/30 07:12:37;;;;;;;0.30;0.30;;;10.30;98.80;;;;;;5116335;27;20179;-70
2021/09/30 07:15:04;;;;;;;0.30;0.30;;;10.80;97.20;;;;;;5134632;27;20167;-70
2021/09/30 07:17:30;;;;;;;0.30;0.30;;;11.50;95.00;;;;;;5134832;27;20206;-70
2021/09/30 07:19:57;;;;;;;0.30;0.30;;;12.30;93.80;;;;;;5134802;27;20163;-69
2021/09/30 07:22:23;;;;;;;0.30;0.30;;;13.10;91.80;;;;;;5134728;27;20160;-71
2021/09/30 07:24:49;;;;;;;0.30;0.30;;;13.80;89.20;;;;;;5134581;27;20254;-71
2021/09/30 07:27:15;;;;;;;0.30;0.30;;;14.30;89.40;;;;;;5134583;27;20229;-71
2021/09/30 07:29:41;;;;;;;0.30;0.30;;;14.70;86.50;;;;;;5134602;27;20172;-71
2021/09/30 07:32:06;;;;;;;0.40;0.40;;;14.80;87.80;;;;;;5134638;27;20202;-71
2021/09/30 07:34:33;;;;;;;0.30;0.30;;;14.70;87.90;;;;;;5134408;27;20492;-71
2021/09/30 07:37:00;;;;;;;0.30;0.30;;;14.40;87.00;;;;;;5134565;28;20195;-72
2021/09/30 07:39:26;;;;;;;0.30;0.30;;;14.20;90.20;;;;;;5134361;28;20429;-70
2021/09/30 07:41:52;;;;;;;0.30;0.30;;;14.00;91.00;;;;;;5134389;28;20425;-71
2021/09/30 07:44:18;;;;;;;0.30;0.30;;;13.60;91.80;;;;;;5134202;28;20668;-69
2021/09/30 07:46:46;;;;;;;0.35;0.35;;;13.30;91.10;;;;;;5134234;28;20425;-71
2021/09/30 07:49:12;;;;;;;0.30;0.30;;;13.10;91.00;;;;;;5134530;28;20207;-71
2021/09/30 07:51:39;;;;;;;0.30;0.30;;;12.80;91.00;;;;;;5134432;28;20167;-71
2021/09/30 07:54:06;;;;;;;0.30;0.30;;;12.50;91.80;;;;;;5134023;28;20633;-72
2021/09/30 07:56:33;;;;;;;0.30;0.30;;;12.40;94.40;;;;;;5134375;28;20187;-72
2021/09/30 07:59:00;;;;;;;0.30;0.30;;;12.40;94.70;;;;;;5134416;28;20176;-69
2021/09/30 08:01:25;;;;;;;0.30;0.30;;;12.40;94.10;;;;;;5134320;28;20163;-72
2021/09/30 08:03:52;;;;;;;0.30;0.30;;;12.40;93.40;;;;;;5134058;28;20282;-71
2021/09/30 08:06:18;;;;;;;0.30;0.30;;;12.30;93.90;;;;;;5134301;28;20168;-71
2021/09/30 08:08:44;;;;;;;0.30;0.30;;;12.30;93.20;;;;;;5134111;28;20183;-72
2021/09/30 08:11:10;;;;;;;0.30;0.30;;;12.40;93.40;;;;;;5134217;28;20212;-70
2021/09/30 08:13:38;;;;;;;0.40;0.40;;;12.60;93.60;;;;;;5133504;28;20425;-68
2021/09/30 08:16:04;;;;;;;0.30;0.30;;;12.90;94.50;;;;;;5134566;28;20513;-69
2021/09/30 08:18:31;;;;;;;0.30;0.30;;;13.20;93.70;;;;;;5134707;27;20389;-70
2021/09/30 08:20:56;;;;;;;0.30;0.30;;;13.60;93.40;;;;;;5136954;27;20405;-68
2021/09/30 08:23:24;;;;;;;0.30;0.30;;;14.10;92.10;;;;;;5137830;27;20416;-68
2021/09/30 08:25:51;;;;;;;0.30;0.30;;;14.60;91.20;;;;;;5138039;27;20807;-70
2021/09/30 08:28:18;;;;;;;0.30;0.30;;;15.40;90.80;;;;;;5137382;27;20452;-69
2021/09/30 08:30:44;;;;;;;0.40;0.40;;;16.30;87.70;;;;;;5138061;27;20405;-68
2021/09/30 08:33:10;;;;;;;0.30;0.30;;;17.10;84.80;;;;;;5136570;27;20437;-73
2021/09/30 08:35:37;;;;;;;0.30;0.30;;;17.90;84.30;;;;;;5137921;27;20406;-72
2021/09/30 08:38:04;;;;;;;0.30;0.30;;;19.00;78.40;;;;;;5138131;27;20986;-74
2021/09/30 08:40:30;;;;;;;0.30;0.30;;;20.40;76.50;;;;;;5138151;27;20916;-67
2021/09/30 08:42:57;;;;;;;0.30;0.30;;;22.00;66.00;;;;;;5137983;27;20421;-73
2021/09/30 08:45:23;;;;;;;0.30;0.30;;;23.20;56.80;;;;;;5137988;27;20415;-71
2021/09/30 08:48:09;;;;;;;0.30;0.30;;;24.00;53.30;;;;;;5119223;27;20439;-69
2021/09/30 08:50:40;;;;;;;0.30;0.30;;;24.90;51.50;;;;;;5137108;27;20521;-69
2021/09/30 08:53:08;;;;;;;0.30;0.30;;;25.60;49.90;;;;;;5136629;27;20435;-69
2021/09/30 08:55:34;;;;;;;0.30;0.30;;;26.30;47.90;;;;;;5136564;27;20404;-68
2021/09/30 08:58:03;;;;;;;0.30;0.30;;;26.60;45.10;;;;;;5136261;27;20433;-69
2021/09/30 09:00:30;;;;;;;0.30;0.30;;;26.80;41.10;;;;;;5137971;27;20399;-68
2021/09/30 09:02:56;;;;;;;0.30;0.30;;;27.00;43.00;;;;;;5137294;27;20421;-68
2021/09/30 09:05:22;;;;;;;0.30;0.30;;;27.40;42.60;;;;;;5136613;27;20367;-67
2021/09/30 09:08:00;;;;;;;0.30;0.30;;;27.50;38.80;;;;;;5137609;27;20212;-70
2021/09/30 09:10:29;;;;;;;0.40;0.40;;;27.50;41.70;;;;;;5137650;27;20397;-68
2021/09/30 09:13:03;;;;;;;0.30;0.30;;;27.70;39.90;;;;;;5137553;27;20392;-68
2021/09/30 09:15:39;;;;;;;0.30;0.30;;;27.60;38.10;;;;;;5135824;27;20382;-68
2021/09/30 09:18:34;;;;;;;0.30;0.30;;;27.20;40.40;;;;;;5137284;27;20374;-66
2021/09/30 09:21:10;;;;;;;0.30;0.30;;;27.20;38.00;;;;;;5133051;27;20504;-71
2021/09/30 09:23:56;;;;;;;0.30;0.30;;;26.70;39.30;;;;;;5136511;27;20408;-69
2021/09/30 09:26:28;;;;;;;0.30;0.30;;;26.60;35.60;;;;;;5137005;27;20382;-67
2021/09/30 09:29:12;;;;;;;0.30;0.30;;;26.50;37.60;;;;;;5136667;27;20746;-70
2021/09/30 09:31:49;;;;;;;0.30;0.30;;;26.40;34.90;;;;;;5137308;27;20401;-70
2021/09/30 09:34:22;;;;;;;0.30;0.30;;;26.60;37.60;;;;;;5136626;27;20898;-70
2021/09/30 09:36:53;;;;;;;0.30;0.30;;;27.00;36.00;;;;;;5136888;27;20541;-69
2021/09/30 09:39:33;;;;;;;0.30;0.30;;;27.00;35.50;;;;;;5137114;27;20372;-67
2021/09/30 09:42:17;;;;;;;0.30;0.30;;;26.80;33.70;;;;;;5137142;27;20882;-71
2021/09/30 09:44:58;;;;;;;0.30;0.30;;;26.40;36.30;;;;;;5135626;27;20401;-71
2021/09/30 09:47:39;;;;;;;0.30;0.30;;;26.00;39.10;;;;;;5136460;27;20428;-69
2021/09/30 09:50:25;;;;;;;0.30;0.30;;;25.90;37.30;;;;;;5133572;27;20406;-68
2021/09/30 09:52:55;;;;;;;0.30;0.30;;;25.80;33.60;;;;;;5136444;27;20433;-68
2021/09/30 09:55:27;;;;;;;0.30;0.30;;;26.00;34.00;;;;;;5136153;27;20408;-69
2021/09/30 09:58:10;;;;;;;0.30;0.30;;;25.90;34.50;;;;;;5136192;27;20422;-67
2021/09/30 10:00:37;;;;;;;0.30;0.30;;;26.00;34.80;;;;;;5136252;27;20385;-70
2021/09/30 10:03:26;;;;;;;0.30;0.30;;;25.70;31.90;;;;;;5135930;27;20418;-71
2021/09/30 10:05:52;;;;;;;0.30;0.30;;;25.20;33.00;;;;;;5136243;27;20869;-70
2021/09/30 10:08:18;;;;;;;0.30;0.30;;;25.30;36.40;;;;;;5136041;27;20396;-68
2021/09/30 10:10:46;;;;;;;0.30;0.30;;;25.10;32.40;;;;;;5136063;27;20916;-69
2021/09/30 10:13:13;;;;;;;0.30;0.30;;;25.20;33.10;;;;;;5135770;27;20188;-69
2021/09/30 10:15:39;;;;;;;0.30;0.30;;;25.20;33.40;;;;;;5135242;27;20391;-70
2021/09/30 10:18:08;;;;;;;0.30;0.30;;;25.50;34.20;;;;;;5135388;27;20401;-68
2021/09/30 10:20:34;;;;;;;0.30;0.30;;;25.00;33.30;;;;;;5135885;27;20439;-68
2021/09/30 10:23:02;;;;;;;0.30;0.30;;;24.90;33.70;;;;;;5135583;27;20427;-69
2021/09/30 10:25:39;;;;;;;0.30;0.30;;;25.10;38.00;;;;;;5135526;27;20397;-68
2021/09/30 10:28:07;;;;;;;0.30;0.30;;;24.50;35.50;;;;;;5135515;27;20794;-68
2021/09/30 10:30:45;;;;;;;0.30;0.30;;;24.00;38.00;;;;;;5135550;27;20754;-68
2021/09/30 10:33:23;;;;;;;0.30;0.30;;;23.50;40.30;;;;;;5135388;27;20419;-70
2021/09/30 10:35:54;;;;;;;0.30;0.30;;;22.80;42.20;;;;;;5135642;27;20938;-68
2021/09/30 10:38:26;;;;;;;0.30;0.30;;;21.80;42.70;;;;;;5135560;27;20922;-68
2021/09/30 10:41:00;;;;;;;0.30;0.30;;;21.60;45.50;;;;;;5135334;27;20414;-70
2021/09/30 10:43:30;;;;;;;0.30;0.30;;;21.40;44.70;;;;;;5134555;27;20546;-69
2021/09/30 10:45:57;;;;;;;0.30;0.30;;;21.80;47.00;;;;;;5135162;27;20396;-69
2021/09/30 10:48:23;;;;;;;0.30;0.30;;;22.00;45.40;;;;;;5135491;27;20396;-67
2021/09/30 10:50:51;;;;;;;0.30;0.30;;;21.70;46.50;;;;;;5135232;27;20420;-67
2021/09/30 10:53:16;;;;;;;0.30;0.30;;;20.70;46.40;;;;;;5116428;27;20659;-70
2021/09/30 10:55:42;;;;;;;0.30;0.30;;;20.30;46.90;;;;;;5134943;27;20445;-67
2021/09/30 10:58:24;;;;;;;0.30;0.30;;;20.00;47.80;;;;;;5134995;27;20206;-68
2021/09/30 11:00:52;;;;;;;0.30;0.30;;;20.10;48.70;;;;;;5135128;27;20174;-70
2021/09/30 11:03:20;;;;;;;0.30;0.30;;;19.90;46.40;;;;;;5135087;27;20422;-69
2021/09/30 11:06:06;;;;;;;0.30;0.30;;;19.90;48.40;;;;;;5134890;27;20971;-68
2021/09/30 11:08:34;;;;;;;0.50;0.50;;;19.80;49.70;;;;;;5134824;27;20411;-69
2021/09/30 11:13:30;;;;;;;0.30;0.30;;;19.20;47.50;;;;;;5134567;27;20425;-70
2021/09/30 11:16:07;;;;;;;0.30;0.30;;;19.30;47.90;;;;;;5134835;27;20866;-70
2021/09/30 11:18:43;;;;;;;0.30;0.30;;;19.40;50.00;;;;;;5134931;27;20396;-70
2021/09/30 11:21:27;;;;;;;0.30;0.30;;;19.20;49.50;;;;;;5134770;27;20398;-67
2021/09/30 11:23:55;;;;;;;0.30;0.30;;;18.80;50.20;;;;;;5134361;27;20410;-70
2021/09/30 11:26:21;;;;;;;0.30;0.30;;;18.60;50.40;;;;;;5134495;27;20404;-69
2021/09/30 11:28:46;;;;;;;0.30;0.30;;;18.70;50.90;;;;;;5134961;27;20399;-68
2021/09/30 11:31:33;;;;;;;0.30;0.30;;;18.60;50.20;;;;;;5134590;27;20203;-69
2021/09/30 11:34:01;;;;;;;0.30;0.30;;;18.40;49.70;;;;;;5134249;27;20187;-68
2021/09/30 11:36:35;;;;;;;0.30;0.30;;;18.40;52.20;;;;;;5134470;27;20551;-67
2021/09/30 11:39:02;;;;;;;0.30;0.30;;;18.20;49.60;;;;;;5134233;28;20481;-68
2021/09/30 11:41:29;;;;;;;0.40;0.40;;;18.20;49.20;;;;;;5134500;28;20799;-68
2021/09/30 11:43:56;;;;;;;1.10;1.10;;;18.40;49.30;;;;;;5134125;28;20424;-70
2021/09/30 11:46:28;;;;;;;0.30;0.30;;;18.20;49.60;;;;;;5134274;28;20429;-68
2021/09/30 11:49:01;;;;;;;0.30;0.30;;;18.10;49.80;;;;;;5134271;28;20401;-67
2021/09/30 11:51:32;;;;;;;0.30;0.30;;;18.00;51.00;;;;;;5134772;28;20400;-68
2021/09/30 11:53:58;;;;;;;0.40;0.40;;;17.80;50.50;;;;;;5134821;27;20425;-70
2021/09/30 11:56:24;;;;;;;0.40;0.40;;;17.50;51.10;;;;;;5138486;27;20851;-70
2021/09/30 11:59:05;;;;;;;0.30;0.30;;;17.30;51.00;;;;;;5138474;27;20167;-70
2021/09/30 12:01:41;;;;;;;0.30;0.30;;;17.30;52.20;;;;;;5138608;27;20393;-70
2021/09/30 12:04:08;;;;;;;0.30;0.30;;;17.30;53.00;;;;;;5138168;27;20423;-68
2021/09/30 12:06:47;;;;;;;0.30;0.30;;;17.40;59.50;;;;;;5138511;27;20428;-68
2021/09/30 12:09:14;;;;;;;0.30;0.30;;;17.30;52.70;;;;;;5138431;27;20404;-68
2021/09/30 12:11:55;;;;;;;0.30;0.30;;;17.30;52.10;;;;;;5138358;27;20411;-68
2021/09/30 12:14:22;;;;;;;0.30;0.30;;;17.30;53.40;;;;;;5137798;27;20426;-70
2021/09/30 12:17:02;;;;;;;0.30;0.30;;;17.30;52.90;;;;;;5137984;27;20457;-70
2021/09/30 12:19:42;;;;;;;0.30;0.30;;;17.20;60.20;;;;;;5138312;27;20393;-67
2021/09/30 12:22:15;;;;;;;0.30;0.30;;;17.20;55.80;;;;;;5138193;27;20405;-69
2021/09/30 12:24:49;;;;;;;0.30;0.30;;;17.30;53.10;;;;;;5137811;27;20396;-67
2021/09/30 12:27:17;;;;;;;0.37;0.37;;;17.40;51.20;;;;;;5137993;27;20732;-69
2021/09/30 12:29:46;;;;;;;0.30;0.30;;;17.30;51.90;;;;;;5138283;27;20781;-69
2021/09/30 12:32:18;;;;;;;0.30;0.30;;;17.20;57.00;;;;;;5137889;27;20404;-69
2021/09/30 12:35:03;;;;;;;0.30;0.30;;;16.90;60.90;;;;;;5137658;27;20380;-71
2021/09/30 12:37:30;;;;;;;0.30;0.30;;;17.00;61.70;;;;;;5137833;27;20475;-67
2021/09/30 12:40:03;;;;;;;0.30;0.30;;;17.10;60.40;;;;;;5137947;27;20404;-70
2021/09/30 12:42:29;;;;;;;0.40;0.40;;;17.30;55.90;;;;;;5137695;27;20906;-70
2021/09/30 12:44:55;;;;;;;0.30;0.30;;;17.40;56.50;;;;;;5137614;27;20880;-68
2021/09/30 12:47:29;;;;;;;0.30;0.30;;;17.70;57.70;;;;;;5136542;27;20526;-69
2021/09/30 12:50:05;;;;;;;0.30;0.30;;;17.90;55.70;;;;;;5136646;28;20397;-70
2021/09/30 12:52:31;;;;;;;0.30;0.30;;;17.90;54.30;;;;;;5136318;28;20773;-67
2021/09/30 12:54:57;;;;;;;0.30;0.30;;;17.80;54.00;;;;;;5136149;28;20530;-69
2021/09/30 12:57:32;;;;;;;0.30;0.30;;;17.90;55.00;;;;;;5136336;28;20967;-69
2021/09/30 13:00:12;;;;;;;0.30;0.30;;;17.90;59.30;;;;;;5136249;28;20395;-68
2021/09/30 13:02:40;;;;;;;0.30;0.30;;;17.60;56.10;;;;;;5136161;28;20416;-70
2021/09/30 13:05:07;;;;;;;0.47;0.47;;;17.40;54.60;;;;;;5117399;28;20409;-70
2021/09/30 13:07:46;;;;;;;0.30;0.30;;;17.30;56.20;;;;;;5136118;28;20490;-69
2021/09/30 13:10:13;;;;;;;0.30;0.30;;;17.00;60.20;;;;;;5136120;28;20877;-68
2021/09/30 13:12:39;;;;;;;0.30;0.30;;;16.80;58.20;;;;;;5135817;28;20429;-67
2021/09/30 13:15:05;;;;;;;0.30;0.30;;;16.60;55.40;;;;;;5135724;28;20440;-70
2021/09/30 13:17:31;;;;;;;0.30;0.30;;;16.60;55.90;;;;;;5136127;28;20508;-70
2021/09/30 13:20:13;;;;;;;0.30;0.30;;;16.60;59.20;;;;;;5136026;28;20432;-69
2021/09/30 13:22:41;;;;;;;0.30;0.30;;;16.10;60.80;;;;;;5135927;28;20270;-68
2021/09/30 13:25:10;;;;;;;0.30;0.30;;;15.80;61.90;;;;;;5135509;28;20403;-69
2021/09/30 13:27:38;;;;;;;0.30;0.30;;;15.80;59.30;;;;;;5135664;28;20855;-68
2021/09/30 13:30:06;;;;;;;0.30;0.30;;;15.80;62.00;;;;;;5135597;28;20394;-69
2021/09/30 13:32:32;;;;;;;0.30;0.30;;;15.60;63.30;;;;;;5135690;28;20417;-69
2021/09/30 13:34:59;;;;;;;0.30;0.30;;;15.50;69.70;;;;;;5135601;28;20404;-70
2021/09/30 13:37:25;;;;;;;0.30;0.30;;;15.30;59.70;;;;;;5135252;28;20821;-69
2021/09/30 13:39:56;;;;;;;0.30;0.30;;;15.30;60.90;;;;;;5135397;28;20404;-69
2021/09/30 13:42:25;;;;;;;0.30;0.30;;;15.20;65.00;;;;;;5135599;28;20397;-70
2021/09/30 13:44:51;;;;;;;0.30;0.30;;;15.10;66.50;;;;;;5135211;28;20442;-69
2021/09/30 13:47:17;;;;;;;0.30;0.30;;;14.90;69.80;;;;;;5076629;27;1130681;-68
2021/09/30 13:49:43;;;;;;;0.40;0.40;;;14.90;65.20;;;;;;5136627;27;20871;-68
2021/09/30 13:52:08;;;;;;;0.30;0.30;;;14.70;65.50;;;;;;5136722;27;20210;-67
2021/09/30 13:54:34;;;;;;;0.30;0.30;;;14.30;72.90;;;;;;5136456;27;20405;-69
2021/09/30 13:57:00;;;;;;;0.30;0.30;;;14.10;71.60;;;;;;5134965;27;20201;-69
2021/09/30 13:59:25;;;;;;;0.30;0.30;;;14.00;68.90;;;;;;5136389;27;20222;-68
2021/09/30 14:01:51;;;;;;;0.40;0.40;;;14.00;74.20;;;;;;5136095;27;20250;-69
2021/09/30 14:04:17;;;;;;;0.30;0.30;;;13.90;66.90;;;;;;5117413;27;20194;-70
2021/09/30 14:06:43;;;;;;;0.30;0.30;;;13.90;71.30;;;;;;5136143;27;20421;-69
2021/09/30 14:09:09;;;;;;;0.30;0.30;;;13.80;73.50;;;;;;5117588;27;20431;-66
2021/09/30 14:11:35;;;;;;;0.30;0.30;;;13.40;77.70;;;;;;5135935;27;20405;-66
2021/09/30 14:14:01;;;;;;;0.40;0.40;;;13.10;80.00;;;;;;5135658;27;20238;-67
2021/09/30 14:16:27;;;;;;;0.30;0.30;;;13.10;76.80;;;;;;5135151;27;20444;-69
2021/09/30 14:18:53;;;;;;;0.30;0.30;;;13.10;77.40;;;;;;5135926;27;20628;-67
2021/09/30 14:21:19;;;;;;;0.30;0.30;;;13.10;80.80;;;;;;5101052;27;20579;-68
2021/09/30 14:23:46;;;;;;;0.30;0.30;;;13.10;81.00;;;;;;5135660;27;20793;-67
2021/09/30 14:26:12;;;;;;;0.30;0.30;;;13.10;83.00;;;;;;5135667;27;20448;-69
2021/09/30 14:28:38;;;;;;;0.30;0.30;;;13.20;84.10;;;;;;5135795;27;20438;-68
2021/09/30 14:31:04;;;;;;;0.30;0.30;;;13.00;88.50;;;;;;5135706;27;20205;-68
2021/09/30 14:33:32;;;;;;;0.50;0.50;;;12.80;89.90;;;;;;5135303;27;20435;-70
2021/09/30 14:35:59;;;;;;;0.30;0.30;;;12.70;91.00;;;;;;5135315;27;20453;-67
2021/09/30 14:38:25;;;;;;;0.30;0.30;;;12.60;92.30;;;;;;5135398;27;20178;-67
2021/09/30 14:40:52;;;;;;;0.30;0.30;;;12.50;92.80;;;;;;5135730;27;20168;-70
2021/09/30 14:43:21;;;;;;;0.30;0.30;;;12.60;93.30;;;;;;5135129;27;20427;-70
2021/09/30 14:45:47;;;;;;;0.30;0.30;;;12.60;92.50;;;;;;5135233;27;20897;-67
2021/09/30 14:48:13;;;;;;;0.30;0.30;;;12.50;93.90;;;;;;5135467;27;20262;-68
2021/09/30 14:50:40;;;;;;;0.30;0.30;;;12.30;94.70;;;;;;5135626;27;20645;-67
2021/09/30 14:53:06;;;;;;;0.30;0.30;;;12.30;94.30;;;;;;5116505;27;20675;-69
2021/09/30 14:55:31;;;;;;;0.30;0.30;;;12.30;93.90;;;;;;5135338;27;20402;-69
2021/09/30 14:57:57;;;;;;;0.30;0.30;;;12.30;93.30;;;;;;5135082;27;20440;-69
2021/09/30 15:00:23;;;;;;;0.30;0.30;;;12.30;94.20;;;;;;5135141;27;20163;-68
2021/09/30 15:02:48;;;;;;;0.30;0.30;;;12.30;94.80;;;;;;5135080;27;20194;-68
2021/09/30 15:05:14;;;;;;;0.33;0.33;;;12.20;95.00;;;;;;5134641;27;20163;-67
2021/09/30 15:07:41;;;;;;;0.30;0.30;;;12.20;94.70;;;;;;5134913;27;20246;-69
2021/09/30 15:10:07;;;;;;;0.30;0.30;;;12.20;94.90;;;;;;5134913;27;20163;-67
2021/09/30 15:12:33;;;;;;;0.30;0.30;;;12.20;94.90;;;;;;5134868;27;20421;-67
2021/09/30 15:14:59;;;;;;;0.30;0.30;;;12.10;95.50;;;;;;5134803;27;20246;-68
2021/09/30 15:17:35;;;;;;;0.30;0.30;;;11.90;96.10;;;;;;5134707;27;20203;-68
2021/09/30 15:22:47;;;;;;;0.30;0.30;;;11.70;96.50;;;;;;5134792;27;20194;-67
2021/09/30 15:25:13;;;;;;;0.30;0.30;;;11.60;96.70;;;;;;5134451;27;20159;-69
2021/09/30 15:27:38;;;;;;;0.30;0.30;;;11.60;97.10;;;;;;5134422;27;20167;-68
2021/09/30 15:30:05;;;;;;;0.30;0.30;;;11.60;97.10;;;;;;5134715;27;20999;-68
2021/09/30 15:32:31;;;;;;;0.30;0.30;;;11.70;96.80;;;;;;5134669;27;20187;-67
2021/09/30 15:34:56;;;;;;;0.30;0.30;;;11.80;95.80;;;;;;5134399;27;20235;-67
2021/09/30 15:37:22;;;;;;;0.30;0.30;;;12.00;96.00;;;;;;5134652;27;20562;-69
2021/09/30 15:39:48;;;;;;;0.30;0.30;;;11.80;96.60;;;;;;5134764;27;20164;-67
2021/09/30 15:42:16;;;;;;;0.30;0.30;;;11.70;96.80;;;;;;5134494;28;20192;-66
2021/09/30 15:44:42;;;;;;;0.30;0.30;;;11.60;97.10;;;;;;5134200;28;20252;-68
2021/09/30 15:47:08;;;;;;;0.30;0.30;;;11.80;97.20;;;;;;5134309;28;20658;-67
2021/09/30 15:49:33;;;;;;;0.30;0.30;;;11.80;97.30;;;;;;5134298;28;20178;-67